createdAt,value
2019-03-25T00:00:31.204Z,16.97
2019-03-25T00:01:37.182Z,20.10
2019-03-25T00:02:41.514Z,21.02
2019-03-25T00:03:46.303Z,21.30
2019-03-25T00:04:53.172Z,18.95
2019-03-25T00:05:59.142Z,18.60
2019-03-25T00:07:08.586Z,18.73
2019-03-25T00:08:14.456Z,20.02
2019-03-25T00:09:22.823Z,20.25
2019-03-25T00:10:31.856Z,22.73
2019-03-25T00:11:46.299Z,21.70
2019-03-25T00:12:57.263Z,21.60
2019-03-25T00:14:03.128Z,22.70
2019-03-25T00:15:07.476Z,22.90
2019-03-25T00:16:11.900Z,22.13
2019-03-25T00:17:24.522Z,21.90
2019-03-25T00:18:44.221Z,21.65
2019-03-25T00:19:52.174Z,21.60
2019-03-25T00:21:09.385Z,20.35
2019-03-25T00:22:13.833Z,22.40
2019-03-25T00:23:26.698Z,23.27
2019-03-25T00:24:38.277Z,24.07
2019-03-25T00:25:35.094Z,23.40
2019-03-25T00:26:40.972Z,24.87
2019-03-25T00:27:45.351Z,23.52
2019-03-25T00:28:49.700Z,24.23
2019-03-25T00:29:56.097Z,25.27
2019-03-25T00:31:04.024Z,24.45
2019-03-25T00:32:08.325Z,24.37
2019-03-25T00:33:17.134Z,25.92
2019-03-25T00:34:25.143Z,23.98
2019-03-25T00:35:31.534Z,24.37
2019-03-25T00:36:45.110Z,24.67
2019-03-25T00:37:57.711Z,24.50
2019-03-25T00:39:11.960Z,24.23
2019-03-25T00:40:26.499Z,24.98
2019-03-25T00:41:33.900Z,25.43
2019-03-25T00:42:43.570Z,26.33
2019-03-25T00:43:57.589Z,25.05
2019-03-25T00:45:06.054Z,23.02
2019-03-25T00:46:11.586Z,26.30
2019-03-25T00:47:15.795Z,27.40
2019-03-25T00:48:21.782Z,28.12
2019-03-25T00:49:27.091Z,28.23
2019-03-25T00:50:35.885Z,27.17
2019-03-25T00:51:40.101Z,28.87
2019-03-25T00:52:44.526Z,29.85
2019-03-25T00:54:06.828Z,29.20
2019-03-25T00:55:30.826Z,27.48
2019-03-25T00:57:10.038Z,29.70
2019-03-25T00:58:17.832Z,29.32
2019-03-25T01:01:10.208Z,33.13
2019-03-25T01:02:11.392Z,34.50
2019-03-25T01:04:25.678Z,32.50
2019-03-25T01:05:42.520Z,32.45
2019-03-25T01:06:42.814Z,30.43
2019-03-25T01:07:50.013Z,29.77
2019-03-25T01:08:54.459Z,32.03
2019-03-25T01:09:58.797Z,32.55
2019-03-25T01:11:03.058Z,31.25
2019-03-25T01:12:08.642Z,31.95
2019-03-25T01:13:17.874Z,31.95
2019-03-25T01:14:23.143Z,31.65
2019-03-25T01:15:28.931Z,32.25
2019-03-25T01:16:36.864Z,31.90
2019-03-25T01:17:43.835Z,33.90
2019-03-25T01:18:49.604Z,34.92
2019-03-25T01:19:55.225Z,34.08
2019-03-25T01:21:00.481Z,33.30
2019-03-25T01:22:04.883Z,33.88
2019-03-25T01:23:10.942Z,33.55
2019-03-25T01:24:19.117Z,33.73
2019-03-25T01:25:28.875Z,34.73
2019-03-25T01:26:37.654Z,34.45
2019-03-25T01:27:44.960Z,33.55
2019-03-25T01:28:49.255Z,36.48
2019-03-25T01:29:53.464Z,36.10
2019-03-25T01:30:57.699Z,37.85
2019-03-25T01:32:01.958Z,39.80
2019-03-25T01:33:10.530Z,37.20
2019-03-25T01:34:14.767Z,35.92
2019-03-25T01:35:21.329Z,37.13
2019-03-25T01:36:25.631Z,35.20
2019-03-25T01:37:29.977Z,36.03
2019-03-25T01:38:36.838Z,35.15
2019-03-25T01:39:40.962Z,40.10
2019-03-25T01:40:46.989Z,37.38
2019-03-25T01:41:51.057Z,34.25
2019-03-25T01:42:55.439Z,38.92
2019-03-25T01:44:02.304Z,36.40
2019-03-25T01:45:08.848Z,36.33
2019-03-25T01:46:16.667Z,33.60
2019-03-25T01:47:20.924Z,36.17
2019-03-25T01:48:25.173Z,37.15
2019-03-25T01:49:33.367Z,38.23
2019-03-25T01:50:40.543Z,35.83
2019-03-25T01:51:46.186Z,32.85
2019-03-25T01:52:51.851Z,35.70
2019-03-25T01:53:57.563Z,36.17
2019-03-25T01:55:12.714Z,37.17
2019-03-25T01:56:09.318Z,35.70
2019-03-25T01:57:13.423Z,36.40
2019-03-25T01:58:20.610Z,35.50
2019-03-25T01:59:33.607Z,36.15
2019-03-25T02:00:37.995Z,37.93
2019-03-25T02:01:43.417Z,35.95
2019-03-25T02:02:49.362Z,35.52
2019-03-25T02:03:55.476Z,34.70
2019-03-25T02:04:59.792Z,37.05
2019-03-25T02:06:06.338Z,38.63
2019-03-25T02:07:11.979Z,38.67
2019-03-25T02:08:17.793Z,38.38
2019-03-25T02:09:21.933Z,36.73
2019-03-25T02:10:27.329Z,34.88
2019-03-25T02:11:34.134Z,35.25
2019-03-25T02:12:38.534Z,33.23
2019-03-25T02:13:46.527Z,31.93
2019-03-25T02:14:50.883Z,34.38
2019-03-25T02:15:57.539Z,34.83
2019-03-25T02:17:01.096Z,33.65
2019-03-25T02:18:05.457Z,33.98
2019-03-25T02:19:11.498Z,33.75
2019-03-25T02:20:26.325Z,32.13
2019-03-25T02:21:25.735Z,34.63
2019-03-25T02:22:30.101Z,32.70
2019-03-25T02:23:35.740Z,31.05
2019-03-25T02:24:45.476Z,27.80
2019-03-25T02:25:52.047Z,30.65
2019-03-25T02:26:58.734Z,26.80
2019-03-25T02:28:02.949Z,26.25
2019-03-25T02:29:07.098Z,27.32
2019-03-25T02:30:12.243Z,22.85
2019-03-25T02:31:17.196Z,26.65
2019-03-25T02:32:23.829Z,26.90
2019-03-25T02:33:27.299Z,29.12
2019-03-25T02:34:31.619Z,25.20
2019-03-25T02:35:35.939Z,27.13
2019-03-25T02:36:41.658Z,25.80
2019-03-25T02:37:45.967Z,26.68
2019-03-25T02:38:51.947Z,27.65
2019-03-25T02:39:56.214Z,26.52
2019-03-25T02:41:00.418Z,27.13
2019-03-25T02:42:07.708Z,25.37
2019-03-25T02:43:12.013Z,26.73
2019-03-25T02:44:16.283Z,26.85
2019-03-25T02:45:20.633Z,23.90
2019-03-25T02:46:26.336Z,25.60
2019-03-25T02:47:30.679Z,26.27
2019-03-25T02:48:34.889Z,24.52
2019-03-25T02:49:39.150Z,25.45
2019-03-25T02:50:43.385Z,24.72
2019-03-25T02:51:47.761Z,25.08
2019-03-25T02:52:51.920Z,25.20
2019-03-25T02:53:57.651Z,25.02
2019-03-25T02:55:01.877Z,26.15
2019-03-25T02:56:06.106Z,25.88
2019-03-25T02:57:13.437Z,24.12
2019-03-25T02:58:17.632Z,25.08
2019-03-25T02:59:21.843Z,26.27
2019-03-25T03:00:36.848Z,24.92
2019-03-25T03:01:45.883Z,22.70
2019-03-25T03:02:51.107Z,24.25
2019-03-25T03:03:54.618Z,26.60
2019-03-25T03:05:02.913Z,24.77
2019-03-25T03:06:11.215Z,24.27
2019-03-25T03:07:17.450Z,25.52
2019-03-25T03:08:21.602Z,23.07
2019-03-25T03:09:25.916Z,24.60
2019-03-25T03:10:30.248Z,23.90
2019-03-25T03:11:34.776Z,24.10
2019-03-25T03:12:39.727Z,24.95
2019-03-25T03:13:45.293Z,23.00
2019-03-25T03:14:51.646Z,26.57
2019-03-25T03:15:55.901Z,23.90
2019-03-25T03:17:01.799Z,23.07
2019-03-25T03:18:06.102Z,23.07
2019-03-25T03:19:10.560Z,23.60
2019-03-25T03:20:21.300Z,23.62
2019-03-25T03:21:23.871Z,24.20
2019-03-25T03:22:35.028Z,23.98
2019-03-25T03:23:39.381Z,23.83
2019-03-25T03:24:45.166Z,22.32
2019-03-25T03:25:57.590Z,22.80
2019-03-25T03:27:02.280Z,21.27
2019-03-25T03:28:10.400Z,21.48
2019-03-25T03:29:16.737Z,23.73
2019-03-25T03:30:25.467Z,23.42
2019-03-25T03:31:30.405Z,22.93
2019-03-25T03:32:34.689Z,22.85
2019-03-25T03:33:44.117Z,22.93
2019-03-25T03:34:47.500Z,22.32
2019-03-25T03:35:51.963Z,21.95
2019-03-25T03:36:58.267Z,22.62
2019-03-25T03:38:04.187Z,21.10
2019-03-25T03:39:12.522Z,22.40
2019-03-25T03:40:16.142Z,21.05
2019-03-25T03:41:20.931Z,23.67
2019-03-25T03:42:32.655Z,22.82
2019-03-25T03:43:36.875Z,23.65
2019-03-25T03:44:41.088Z,22.52
2019-03-25T03:45:46.921Z,21.35
2019-03-25T03:46:56.585Z,22.75
2019-03-25T03:48:02.685Z,20.43
2019-03-25T03:49:06.916Z,20.27
2019-03-25T03:50:17.034Z,20.75
2019-03-25T03:51:23.154Z,20.40
2019-03-25T03:52:30.960Z,22.37
2019-03-25T03:53:37.298Z,20.35
2019-03-25T03:54:43.669Z,21.00
2019-03-25T03:55:49.282Z,20.70
2019-03-25T03:57:00.270Z,19.12
2019-03-25T03:58:04.656Z,19.60
2019-03-25T03:59:10.090Z,18.12
2019-03-25T04:00:24.442Z,18.12
2019-03-25T04:01:23.418Z,18.07
2019-03-25T04:02:30.913Z,16.50
2019-03-25T04:03:35.265Z,14.93
2019-03-25T04:04:46.422Z,17.32
2019-03-25T04:05:50.300Z,16.17
2019-03-25T04:06:54.614Z,16.17
2019-03-25T04:08:03.142Z,14.98
2019-03-25T04:09:09.028Z,15.78
2019-03-25T04:10:17.852Z,15.50
2019-03-25T04:11:23.720Z,16.02
2019-03-25T04:12:32.263Z,15.88
2019-03-25T04:13:38.024Z,13.85
2019-03-25T04:14:42.689Z,12.03
2019-03-25T04:15:46.910Z,15.05
2019-03-25T04:16:51.154Z,14.07
2019-03-25T04:17:57.730Z,13.50
2019-03-25T04:19:01.963Z,12.73
2019-03-25T04:20:07.888Z,13.25
2019-03-25T04:21:13.730Z,12.25
2019-03-25T04:22:17.955Z,11.85
2019-03-25T04:23:22.221Z,12.07
2019-03-25T04:24:26.434Z,12.05
2019-03-25T04:25:30.545Z,13.03
2019-03-25T04:26:34.903Z,12.45
2019-03-25T04:27:39.044Z,12.53
2019-03-25T04:28:44.719Z,12.00
2019-03-25T04:29:48.836Z,10.98
2019-03-25T04:30:53.047Z,11.53
2019-03-25T04:31:57.275Z,11.03
2019-03-25T04:33:03.088Z,10.95
2019-03-25T04:34:07.243Z,12.40
2019-03-25T04:35:12.783Z,11.53
2019-03-25T04:36:19.083Z,11.22
2019-03-25T04:37:23.204Z,10.53
2019-03-25T04:38:27.324Z,12.07
2019-03-25T04:39:31.449Z,11.03
2019-03-25T04:40:36.115Z,12.45
2019-03-25T04:41:40.319Z,10.60
2019-03-25T04:42:44.442Z,11.25
2019-03-25T04:43:48.624Z,11.35
2019-03-25T04:44:55.927Z,11.90
2019-03-25T04:46:00.138Z,11.93
2019-03-25T04:47:04.380Z,11.90
2019-03-25T04:48:08.509Z,11.97
2019-03-25T04:49:14.006Z,11.97
2019-03-25T04:50:18.195Z,12.50
2019-03-25T04:51:22.296Z,11.55
2019-03-25T04:52:28.174Z,10.58
2019-03-25T04:53:32.246Z,12.00
2019-03-25T04:54:37.983Z,10.28
2019-03-25T04:55:42.178Z,11.38
2019-03-25T04:56:46.517Z,11.10
2019-03-25T04:57:50.625Z,10.90
2019-03-25T04:58:54.726Z,11.28
2019-03-25T04:59:58.999Z,11.83
2019-03-25T05:01:03.105Z,12.30
2019-03-25T05:02:07.193Z,12.50
2019-03-25T05:03:15.299Z,9.93
2019-03-25T05:04:19.402Z,11.73
2019-03-25T05:05:23.640Z,12.78
2019-03-25T05:06:29.802Z,11.93
2019-03-25T05:07:36.584Z,12.00
2019-03-25T05:08:40.818Z,12.37
2019-03-25T05:09:47.973Z,12.30
2019-03-25T05:10:52.075Z,12.15
2019-03-25T05:12:01.066Z,11.35
2019-03-25T05:13:08.873Z,11.60
2019-03-25T05:14:13.059Z,11.65
2019-03-25T05:15:20.233Z,11.22
2019-03-25T05:16:27.053Z,11.05
2019-03-25T05:17:34.572Z,11.00
2019-03-25T05:18:38.785Z,10.25
2019-03-25T05:19:43.047Z,12.30
2019-03-25T05:20:47.165Z,10.60
2019-03-25T05:22:01.773Z,10.75
2019-03-25T05:23:07.531Z,10.43
2019-03-25T05:24:13.281Z,10.35
2019-03-25T05:25:17.492Z,10.25
2019-03-25T05:26:21.711Z,10.90
2019-03-25T05:27:27.305Z,10.50
2019-03-25T05:28:31.595Z,11.30
2019-03-25T05:29:37.130Z,11.43
2019-03-25T05:30:41.353Z,11.57
2019-03-25T05:31:45.517Z,10.08
2019-03-25T05:32:53.175Z,10.68
2019-03-25T05:34:03.616Z,11.03
2019-03-25T05:35:07.294Z,10.80
2019-03-25T05:36:13.570Z,10.95
2019-03-25T05:37:19.490Z,11.73
2019-03-25T05:38:23.683Z,10.53
2019-03-25T05:39:27.877Z,10.93
2019-03-25T05:40:38.402Z,11.95
2019-03-25T05:41:46.874Z,10.28
2019-03-25T05:42:52.115Z,10.98
2019-03-25T05:44:01.121Z,11.88
2019-03-25T05:45:09.043Z,10.63
2019-03-25T05:46:14.853Z,11.15
2019-03-25T05:47:19.098Z,10.90
2019-03-25T05:48:23.172Z,10.78
2019-03-25T05:49:27.290Z,10.75
2019-03-25T05:50:33.123Z,11.28
2019-03-25T05:51:41.812Z,10.88
2019-03-25T05:52:47.563Z,11.38
2019-03-25T05:53:56.156Z,11.68
2019-03-25T05:55:05.515Z,11.15
2019-03-25T05:56:09.667Z,11.22
2019-03-25T05:57:13.994Z,11.55
2019-03-25T05:58:18.403Z,10.53
2019-03-25T05:59:22.543Z,11.30
2019-03-25T06:00:37.785Z,11.88
2019-03-25T06:01:44.206Z,10.93
2019-03-25T06:02:49.540Z,11.18
2019-03-25T06:03:56.850Z,10.20
2019-03-25T06:05:05.166Z,10.20
2019-03-25T06:06:10.994Z,11.60
2019-03-25T06:07:24.527Z,10.55
2019-03-25T06:08:30.394Z,11.08
2019-03-25T06:09:34.685Z,10.23
2019-03-25T06:10:38.912Z,10.38
2019-03-25T06:11:44.725Z,10.72
2019-03-25T06:12:53.241Z,10.32
2019-03-25T06:13:57.345Z,11.05
2019-03-25T06:15:00.647Z,11.08
2019-03-25T06:16:05.044Z,11.40
2019-03-25T06:17:11.425Z,10.60
2019-03-25T06:18:16.661Z,10.28
2019-03-25T06:19:24.933Z,11.80
2019-03-25T06:20:30.871Z,10.45
2019-03-25T06:21:36.716Z,10.65
2019-03-25T06:22:42.651Z,11.63
2019-03-25T06:23:49.701Z,10.58
2019-03-25T06:24:57.912Z,9.98
2019-03-25T06:26:02.246Z,10.43
2019-03-25T06:27:14.038Z,10.58
2019-03-25T06:28:15.653Z,11.60
2019-03-25T06:29:22.744Z,10.32
2019-03-25T06:30:34.139Z,10.65
2019-03-25T06:31:40.668Z,9.73
2019-03-25T06:32:49.698Z,10.98
2019-03-25T06:33:52.440Z,11.35
2019-03-25T06:34:59.542Z,10.60
2019-03-25T06:36:04.552Z,10.35
2019-03-25T06:37:08.789Z,10.13
2019-03-25T06:38:15.448Z,9.45
2019-03-25T06:39:19.105Z,10.00
2019-03-25T06:40:25.057Z,9.90
2019-03-25T06:41:36.039Z,10.18
2019-03-25T06:42:36.778Z,8.58
2019-03-25T06:43:42.373Z,8.50
2019-03-25T06:44:48.314Z,9.38
2019-03-25T06:45:54.704Z,9.38
2019-03-25T06:47:14.446Z,8.90
2019-03-25T06:48:08.932Z,8.35
2019-03-25T06:49:13.130Z,8.05
2019-03-25T06:50:17.540Z,9.05
2019-03-25T06:51:26.294Z,7.75
2019-03-25T06:52:30.728Z,8.40
2019-03-25T06:53:34.978Z,8.18
2019-03-25T06:54:39.080Z,7.55
2019-03-25T06:55:43.320Z,8.05
2019-03-25T06:56:51.020Z,7.25
2019-03-25T06:57:55.209Z,7.80
2019-03-25T06:58:59.439Z,7.30
2019-03-25T07:00:05.785Z,8.45
2019-03-25T07:01:10.025Z,6.83
2019-03-25T07:02:15.918Z,6.60
2019-03-25T07:03:20.051Z,7.03
2019-03-25T07:04:25.366Z,7.08
2019-03-25T07:05:32.347Z,5.80
2019-03-25T07:06:39.416Z,6.92
2019-03-25T07:07:43.567Z,6.33
2019-03-25T07:08:47.658Z,6.12
2019-03-25T07:09:53.505Z,10.70
2019-03-25T07:10:57.699Z,14.30
2019-03-25T07:12:02.462Z,7.45
2019-03-25T07:13:06.699Z,7.75
2019-03-25T07:14:10.910Z,7.10
2019-03-25T07:15:16.725Z,6.42
2019-03-25T07:16:21.062Z,5.95
2019-03-25T07:17:49.580Z,6.08
2019-03-25T07:18:55.138Z,6.37
2019-03-25T07:20:02.019Z,7.08
2019-03-25T07:21:06.284Z,6.60
2019-03-25T07:22:12.144Z,5.92
2019-03-25T07:23:16.357Z,6.47
2019-03-25T07:24:20.421Z,5.37
2019-03-25T07:25:25.752Z,6.33
2019-03-25T07:26:29.957Z,5.85
2019-03-25T07:27:38.873Z,5.00
2019-03-25T07:28:57.068Z,5.42
2019-03-25T07:29:54.968Z,5.47
2019-03-25T07:30:59.380Z,5.65
2019-03-25T07:32:06.276Z,5.78
2019-03-25T07:33:10.388Z,5.22
2019-03-25T07:34:14.930Z,5.53
2019-03-25T07:35:25.180Z,6.33
2019-03-25T07:36:30.582Z,4.92
2019-03-25T07:37:36.368Z,5.30
2019-03-25T07:38:43.687Z,5.35
2019-03-25T07:39:55.322Z,5.60
2019-03-25T07:41:03.112Z,6.53
2019-03-25T09:07:13.406Z,4.25
2019-03-25T09:08:20.978Z,3.70
2019-03-25T09:09:26.931Z,3.25
2019-03-25T09:10:39.542Z,3.05
2019-03-25T09:11:41.368Z,3.00
2019-03-25T09:12:45.680Z,3.72
2019-03-25T09:13:51.480Z,3.15
2019-03-25T09:14:55.739Z,3.12
2019-03-25T09:16:00.031Z,3.55
2019-03-25T09:17:04.749Z,3.83
2019-03-25T09:18:11.838Z,3.65
2019-03-25T09:19:19.203Z,4.10
2019-03-25T09:20:25.046Z,3.58
2019-03-25T09:21:31.707Z,3.80
2019-03-25T09:22:41.340Z,3.90
2019-03-25T09:23:45.662Z,3.67
2019-03-25T09:24:51.523Z,3.27
2019-03-25T09:25:59.695Z,3.67
2019-03-25T09:27:03.274Z,3.40
2019-03-25T09:28:11.169Z,3.92
2019-03-25T09:29:15.375Z,3.90
2019-03-25T09:30:22.762Z,3.30
2019-03-25T09:31:36.827Z,3.83
2019-03-25T09:32:34.483Z,4.35
2019-03-25T09:33:38.789Z,4.10
2019-03-25T09:34:43.161Z,3.98
2019-03-25T09:35:48.507Z,3.58
2019-03-25T09:36:52.875Z,4.05
2019-03-25T09:37:58.686Z,4.25
2019-03-25T09:39:04.597Z,3.35
2019-03-25T09:40:10.461Z,3.60
2019-03-25T09:41:14.736Z,4.10
2019-03-25T09:42:18.957Z,3.90
2019-03-25T09:43:23.248Z,4.58
2019-03-25T09:44:27.551Z,7.67
2019-03-25T09:45:34.729Z,5.40
2019-03-25T09:46:43.831Z,4.20
2019-03-25T09:47:48.275Z,4.50
2019-03-25T09:48:52.734Z,4.05
2019-03-25T09:49:58.168Z,4.30
2019-03-25T09:51:02.427Z,3.90
2019-03-25T09:52:06.762Z,3.83
2019-03-25T09:53:11.143Z,4.87
2019-03-25T09:54:15.262Z,4.10
2019-03-25T09:55:19.558Z,3.83
2019-03-25T09:56:24.876Z,3.83
2019-03-25T09:57:30.186Z,3.90
2019-03-25T09:58:41.617Z,3.62
2019-03-25T09:59:45.850Z,3.40
2019-03-25T10:00:52.246Z,3.42
2019-03-25T10:01:55.893Z,3.52
2019-03-25T10:03:00.791Z,3.00
2019-03-25T10:04:05.010Z,3.58
2019-03-25T10:05:09.453Z,3.55
2019-03-25T10:06:15.131Z,2.75
2019-03-25T10:07:22.163Z,2.87
2019-03-25T10:08:26.445Z,2.42
2019-03-25T10:09:31.950Z,3.22
2019-03-25T10:10:38.845Z,3.08
2019-03-25T10:11:44.564Z,2.40
2019-03-25T10:12:48.850Z,2.65
2019-03-25T10:13:54.707Z,3.52
2019-03-25T10:15:02.181Z,3.00
2019-03-25T10:16:11.101Z,2.30
2019-03-25T10:17:15.395Z,2.87
2019-03-25T10:18:22.573Z,3.33
2019-03-25T10:19:29.645Z,3.33
2019-03-25T10:20:35.481Z,2.83
2019-03-25T10:21:42.780Z,2.90
2019-03-25T10:22:48.356Z,3.27
2019-03-25T10:23:55.370Z,2.98
2019-03-25T10:25:15.581Z,3.00
2019-03-25T10:26:08.498Z,3.27
2019-03-25T10:27:14.411Z,3.05
2019-03-25T10:28:18.739Z,2.85
2019-03-25T10:29:29.417Z,3.15
2019-03-25T10:30:28.931Z,3.17
2019-03-25T10:31:37.421Z,2.58
2019-03-25T10:32:44.808Z,2.85
2019-03-25T10:33:49.111Z,2.65
2019-03-25T10:34:54.759Z,3.12
2019-03-25T10:36:02.048Z,3.00
2019-03-25T10:37:06.435Z,2.92
2019-03-25T10:38:19.597Z,2.70
2019-03-25T10:39:20.835Z,2.60
2019-03-25T10:40:25.485Z,2.70
2019-03-25T10:41:31.352Z,2.85
2019-03-25T10:42:37.300Z,3.20
2019-03-25T10:43:41.600Z,2.92
2019-03-25T10:44:49.915Z,2.80
2019-03-25T10:45:54.315Z,2.72
2019-03-25T10:46:58.760Z,3.00
2019-03-25T10:48:05.604Z,3.15
2019-03-25T10:49:12.249Z,3.95
2019-03-25T10:50:28.257Z,3.08
2019-03-25T10:51:32.649Z,3.00
2019-03-25T10:52:36.950Z,3.95
2019-03-25T10:53:41.291Z,3.00
2019-03-25T10:54:51.063Z,2.95
2019-03-25T10:55:56.001Z,3.30
2019-03-25T10:57:03.495Z,2.83
2019-03-25T10:58:08.842Z,2.98
2019-03-25T10:59:13.138Z,3.40
2019-03-25T11:00:20.422Z,3.37
2019-03-25T11:01:26.149Z,3.52
2019-03-25T11:02:37.426Z,3.22
2019-03-25T11:03:43.398Z,3.52
2019-03-25T11:04:47.883Z,2.85
2019-03-25T11:05:53.813Z,3.17
2019-03-25T11:07:01.217Z,3.30
2019-03-25T11:08:08.190Z,3.30
2019-03-25T11:09:15.007Z,3.37
2019-03-25T11:10:21.017Z,3.00
2019-03-25T11:11:25.517Z,3.20
2019-03-25T11:12:34.321Z,3.30
2019-03-25T11:13:38.640Z,3.42
2019-03-25T11:14:49.638Z,3.10
2019-03-25T11:15:53.106Z,3.45
2019-03-25T11:16:57.509Z,3.75
2019-03-25T11:18:05.820Z,3.27
2019-03-25T11:19:13.911Z,3.60
2019-03-25T11:20:18.195Z,3.22
2019-03-25T11:21:23.895Z,3.20
2019-03-25T11:22:30.709Z,3.75
2019-03-25T11:23:34.177Z,3.10
2019-03-25T11:24:42.934Z,3.25
2019-03-25T11:25:47.216Z,3.37
2019-03-25T11:26:52.548Z,3.35
2019-03-25T11:27:58.420Z,3.22
2019-03-25T11:29:08.285Z,3.10
2019-03-25T11:30:13.690Z,2.70
2019-03-25T11:31:19.608Z,3.67
2019-03-25T11:32:31.914Z,3.80
2019-03-25T11:33:36.177Z,3.30
2019-03-25T11:34:40.529Z,2.92
2019-03-25T11:35:46.458Z,3.20
2019-03-25T11:36:54.015Z,3.12
2019-03-25T11:38:00.475Z,3.42
2019-03-25T11:39:09.989Z,2.67
2019-03-25T11:40:15.954Z,3.42
2019-03-25T11:41:22.964Z,3.40
2019-03-25T11:42:33.665Z,4.42
2019-03-25T11:43:36.830Z,4.72
2019-03-25T11:44:44.756Z,4.33
2019-03-25T11:45:51.927Z,4.72
2019-03-25T11:47:01.705Z,4.20
2019-03-25T11:48:05.151Z,4.15
2019-03-25T11:49:09.418Z,4.53
2019-03-25T11:50:13.815Z,3.85
2019-03-25T11:51:19.545Z,4.03
2019-03-25T11:52:25.887Z,3.90
2019-03-25T11:53:31.788Z,3.80
2019-03-25T11:54:39.132Z,3.87
2019-03-25T11:55:43.325Z,3.50
2019-03-25T11:56:47.469Z,3.58
2019-03-25T11:57:52.631Z,3.65
2019-03-25T11:58:56.936Z,3.85
2019-03-25T12:00:01.077Z,3.87
2019-03-25T12:01:05.336Z,3.95
2019-03-25T12:02:17.274Z,3.90
2019-03-25T12:03:15.527Z,4.12
2019-03-25T12:04:21.215Z,3.70
2019-03-25T12:05:36.279Z,4.20
2019-03-25T12:06:35.410Z,4.10
2019-03-25T12:07:40.736Z,3.95
2019-03-25T12:08:45.058Z,4.83
2019-03-25T12:09:51.991Z,4.33
2019-03-25T12:10:55.327Z,4.70
2019-03-25T12:12:00.227Z,4.72
2019-03-25T12:13:04.579Z,5.20
2019-03-25T12:14:09.055Z,4.72
2019-03-25T12:15:17.731Z,5.17
2019-03-25T12:16:23.704Z,4.62
2019-03-25T12:17:29.494Z,4.55
2019-03-25T12:18:33.904Z,4.55
2019-03-25T12:19:39.628Z,4.70
2019-03-25T12:20:48.484Z,4.40
2019-03-25T12:21:55.709Z,4.60
2019-03-25T12:23:04.611Z,4.10
2019-03-25T12:24:07.122Z,4.80
2019-03-25T12:25:16.713Z,4.35
2019-03-25T12:26:20.322Z,4.87
2019-03-25T12:27:28.566Z,4.20
2019-03-25T12:28:33.155Z,4.83
2019-03-25T12:29:40.305Z,5.17
2019-03-25T12:30:46.583Z,4.67
2019-03-25T12:31:52.079Z,5.05
2019-03-25T12:33:03.942Z,4.87
2019-03-25T12:34:02.399Z,5.53
2019-03-25T12:35:07.584Z,5.40
2019-03-25T12:36:13.402Z,4.70
2019-03-25T12:37:19.261Z,4.75
2019-03-25T12:38:25.131Z,4.95
2019-03-25T12:39:29.569Z,5.03
2019-03-25T12:40:35.355Z,4.42
2019-03-25T12:41:41.201Z,4.50
2019-03-25T12:42:47.130Z,5.05
2019-03-25T12:43:51.411Z,4.70
2019-03-25T12:44:55.621Z,4.55
2019-03-25T12:46:02.868Z,5.05
2019-03-25T12:47:10.842Z,5.70
2019-03-25T12:48:15.245Z,5.10
2019-03-25T12:49:22.345Z,4.70
2019-03-25T12:50:27.805Z,5.15
2019-03-25T12:51:33.484Z,4.97
2019-03-25T12:52:39.493Z,4.80
2019-03-25T12:53:45.441Z,4.78
2019-03-25T12:54:52.089Z,5.00
2019-03-25T12:55:55.658Z,4.67
2019-03-25T12:57:01.644Z,4.62
2019-03-25T12:58:11.065Z,4.45
2019-03-25T12:59:17.489Z,3.87
2019-03-25T13:00:36.565Z,5.10
2019-03-25T13:01:52.455Z,4.55
2019-03-25T13:02:47.863Z,4.80
2019-03-25T13:03:53.947Z,5.28
2019-03-25T13:04:58.179Z,5.17
2019-03-25T13:06:03.714Z,4.70
2019-03-25T13:07:10.783Z,5.45
2019-03-25T13:08:15.095Z,4.85
2019-03-25T13:09:19.361Z,5.30
2019-03-25T13:10:25.047Z,4.75
2019-03-25T13:11:29.307Z,4.90
2019-03-25T13:12:33.429Z,4.97
2019-03-25T13:13:37.572Z,4.95
2019-03-25T13:14:41.696Z,5.80
2019-03-25T13:15:45.832Z,5.80
2019-03-25T13:16:50.122Z,5.30
2019-03-25T13:17:54.197Z,5.28
2019-03-25T13:18:58.338Z,4.80
2019-03-25T13:20:02.572Z,5.20
2019-03-25T13:21:09.713Z,5.22
2019-03-25T13:22:17.032Z,4.35
2019-03-25T13:23:21.233Z,4.05
2019-03-25T13:24:25.337Z,5.53
2019-03-25T13:25:29.540Z,5.12
2019-03-25T13:26:33.667Z,5.75
2019-03-25T13:27:37.747Z,6.53
2019-03-25T13:28:43.906Z,5.40
2019-03-25T13:29:52.744Z,5.08
2019-03-25T13:30:57.566Z,5.42
2019-03-25T13:32:01.946Z,4.58
2019-03-25T13:33:10.053Z,4.28
2019-03-25T13:34:15.680Z,4.05
2019-03-25T13:35:21.430Z,3.98
2019-03-25T13:36:27.254Z,4.12
2019-03-25T13:37:34.545Z,5.75
2019-03-25T13:38:39.899Z,4.90
2019-03-25T13:39:44.198Z,3.98
2019-03-25T13:40:48.490Z,4.45
2019-03-25T13:41:54.337Z,3.42
2019-03-25T13:43:00.278Z,4.05
2019-03-25T13:44:09.239Z,4.80
2019-03-25T13:45:10.777Z,4.62
2019-03-25T13:46:15.166Z,4.83
2019-03-25T13:47:27.561Z,4.65
2019-03-25T13:48:33.342Z,4.37
2019-03-25T13:49:37.679Z,4.42
2019-03-25T13:50:41.991Z,4.80
2019-03-25T13:51:47.722Z,4.72
2019-03-25T13:52:54.232Z,4.55
2019-03-25T13:53:58.760Z,4.53
2019-03-25T13:55:05.984Z,4.85
2019-03-25T13:56:12.338Z,4.33
2019-03-25T13:57:16.637Z,4.72
2019-03-25T13:58:25.969Z,5.53
2019-03-25T13:59:36.669Z,4.90
2019-03-25T14:01:43.200Z,5.58
2019-03-25T14:02:48.979Z,4.85
2019-03-25T14:03:53.176Z,5.72
2019-03-25T14:04:57.394Z,5.30
2019-03-25T14:06:03.341Z,4.45
2019-03-25T14:07:12.233Z,4.62
2019-03-25T14:08:16.655Z,4.75
2019-03-25T14:09:22.446Z,5.30
2019-03-25T14:10:29.232Z,5.00
2019-03-25T14:11:32.855Z,5.05
2019-03-25T14:12:37.226Z,4.62
2019-03-25T14:13:49.090Z,6.00
2019-03-25T14:14:47.492Z,4.90
2019-03-25T14:15:51.796Z,5.40
2019-03-25T14:17:00.599Z,5.40
2019-03-25T14:18:07.381Z,5.45
2019-03-25T14:19:10.970Z,5.22
2019-03-25T14:20:15.401Z,5.12
2019-03-25T14:21:22.054Z,5.37
2019-03-25T14:22:27.897Z,4.30
2019-03-25T14:23:33.206Z,4.70
2019-03-25T14:24:37.412Z,5.08
2019-03-25T14:25:43.003Z,5.12
2019-03-25T14:26:48.836Z,4.95
2019-03-25T14:27:59.222Z,5.67
2019-03-25T14:29:03.263Z,5.35
2019-03-25T14:30:14.392Z,4.95
2019-03-25T14:31:15.188Z,4.75
2019-03-25T14:32:22.246Z,4.70
2019-03-25T14:33:28.156Z,4.97
2019-03-25T14:34:44.765Z,5.40
2019-03-25T14:35:47.932Z,5.72
2019-03-25T14:36:52.131Z,5.62
2019-03-25T14:38:00.488Z,5.22
2019-03-25T14:39:05.469Z,5.00
2019-03-25T14:40:12.854Z,5.37
2019-03-25T14:41:25.613Z,6.45
2019-03-25T14:42:30.058Z,6.30
2019-03-25T14:43:34.253Z,6.40
2019-03-25T14:44:39.970Z,6.55
2019-03-25T14:45:45.841Z,6.10
2019-03-25T14:46:52.745Z,5.97
2019-03-25T14:48:02.243Z,7.15
2019-03-25T14:49:07.131Z,6.20
2019-03-25T14:50:11.617Z,6.62
2019-03-25T14:51:18.586Z,6.75
2019-03-25T14:52:26.951Z,7.33
2019-03-25T14:53:31.276Z,6.58
2019-03-25T14:54:35.570Z,7.00
2019-03-25T14:55:41.739Z,6.83
2019-03-25T14:56:46.021Z,7.10
2019-03-25T14:57:51.869Z,8.18
2019-03-25T14:58:59.174Z,7.72
2019-03-25T15:00:06.102Z,7.10
2019-03-25T15:01:13.245Z,8.10
2019-03-25T15:02:17.603Z,7.40
2019-03-25T15:03:22.933Z,7.55
2019-03-25T15:04:27.132Z,7.97
2019-03-25T15:05:32.576Z,7.45
2019-03-25T15:06:39.291Z,7.62
2019-03-25T15:07:45.080Z,7.87
2019-03-25T15:08:49.390Z,8.20
2019-03-25T15:09:53.505Z,8.85
2019-03-25T15:10:59.230Z,8.40
2019-03-25T15:12:03.677Z,7.17
2019-03-25T15:13:07.952Z,8.90
2019-03-25T15:14:12.063Z,9.05
2019-03-25T15:15:16.389Z,8.05
2019-03-25T15:16:22.181Z,8.63
2019-03-25T15:17:28.035Z,9.68
2019-03-25T15:18:33.890Z,8.38
2019-03-25T15:19:40.875Z,10.15
2019-03-25T15:20:45.070Z,9.70
2019-03-25T15:21:49.184Z,9.85
2019-03-25T15:22:53.489Z,10.30
2019-03-25T15:24:00.887Z,10.68
2019-03-25T15:25:09.408Z,11.22
2019-03-25T15:26:13.562Z,10.72
2019-03-25T15:27:19.112Z,9.73
2019-03-25T15:28:23.457Z,10.58
2019-03-25T15:29:30.427Z,10.28
2019-03-25T15:30:36.537Z,9.38
2019-03-25T15:31:40.987Z,9.78
2019-03-25T15:32:47.478Z,10.20
2019-03-25T15:35:17.426Z,9.35
2019-03-25T15:36:21.948Z,9.80
2019-03-25T15:37:26.580Z,10.05
2019-03-25T15:38:32.402Z,9.90
2019-03-25T15:39:46.412Z,10.10
2019-03-25T15:40:48.744Z,9.00
2019-03-25T15:41:50.639Z,9.28
2019-03-25T15:42:55.310Z,10.68
2019-03-25T15:43:59.538Z,8.85
2019-03-25T15:45:06.166Z,9.48
2019-03-25T15:46:10.327Z,9.20
2019-03-25T15:47:14.564Z,9.73
2019-03-25T15:48:18.670Z,9.55
2019-03-25T15:49:24.131Z,10.48
2019-03-25T15:50:28.319Z,8.88
2019-03-25T15:51:35.391Z,9.58
2019-03-25T15:52:39.807Z,9.58
2019-03-25T15:53:44.182Z,9.30
2019-03-25T15:54:48.402Z,10.85
2019-03-25T15:55:54.129Z,10.78
2019-03-25T15:57:02.237Z,10.98